TE65 weather

Nrh Fire Department Heliport
North Richland Hills, Texas, United States

Public forecast

Using degrees Fahrenheit for public forecast. Weather courtesy of forecast.io.

Closest aviation weather report (METAR) to Nrh Fire Department Heliport

Closest report is Fort Worth Meacham International Airport, 7.1 nm (13.1 km) WSW. Retrieved 2020/08/06 11:53 UTC (57 minutes ago):

KFTW 061153Z AUTO 12004KT 9SM BKN120 24/23 A2997 RMK AO2 SLP137 T02390228 10250 20239 53004

Closest aviation forecast (TAF) to Nrh Fire Department Heliport

Closest forecast is Fort Worth Meacham International Airport, 7.1 nm (13.1 km) WSW. Retrieved 2020/08/06 12:22 UTC (28 minutes ago):

TAF KFTW 061120Z 0612/0712 13010KT P6SM FEW015 SCT250 FM061500 17010KT P6SM SCT100